createdAt,value
2019-05-05T00:00:47.947Z,99.90
2019-05-05T00:03:27.554Z,99.90
2019-05-05T00:05:57.510Z,99.90
2019-05-05T00:08:26.477Z,99.90
2019-05-05T00:11:15.364Z,99.90
2019-05-05T00:14:00.674Z,99.90
2019-05-05T00:16:47.241Z,99.90
2019-05-05T00:19:29.749Z,99.90
2019-05-05T00:21:47.091Z,99.90
2019-05-05T00:24:16.125Z,99.90
2019-05-05T00:26:46.086Z,99.90
2019-05-05T00:29:15.358Z,99.90
2019-05-05T00:31:45.422Z,99.90
2019-05-05T00:34:15.327Z,99.90
2019-05-05T00:36:44.649Z,99.90
2019-05-05T00:39:14.971Z,99.90
2019-05-05T00:41:44.885Z,99.90
2019-05-05T00:44:15.319Z,99.90
2019-05-05T00:47:01.790Z,99.90
2019-05-05T00:49:45.696Z,99.90
2019-05-05T00:52:02.393Z,99.90
2019-05-05T00:54:31.331Z,99.90
2019-05-05T00:57:00.426Z,99.90
2019-05-05T00:59:30.615Z,99.90
2019-05-05T01:02:17.125Z,99.90
2019-05-05T01:05:05.201Z,99.90
2019-05-05T01:07:35.096Z,99.90
2019-05-05T01:10:05.110Z,99.90
2019-05-05T01:12:34.882Z,99.90
2019-05-05T01:15:04.610Z,99.90
2019-05-05T01:17:34.529Z,99.90
2019-05-05T01:20:06.779Z,99.90
2019-05-05T01:22:34.842Z,99.90
2019-05-05T01:25:05.379Z,99.90
2019-05-05T01:27:34.884Z,99.90
2019-05-05T01:30:05.282Z,99.90
2019-05-05T01:32:38.134Z,99.90
2019-05-05T01:35:07.389Z,99.90
2019-05-05T01:37:41.333Z,99.90
2019-05-05T01:40:35.249Z,99.90
2019-05-05T01:43:05.325Z,99.90
2019-05-05T01:45:34.802Z,99.90
2019-05-05T01:48:04.899Z,99.90
2019-05-05T01:50:34.973Z,99.90
2019-05-05T01:53:04.818Z,99.90
2019-05-05T01:55:34.712Z,99.90
2019-05-05T01:58:04.774Z,99.90
2019-05-05T02:00:34.765Z,99.90
2019-05-05T02:03:04.658Z,99.90
2019-05-05T02:05:34.848Z,99.90
2019-05-05T02:08:04.907Z,99.90
2019-05-05T02:10:34.820Z,99.90
2019-05-05T02:13:04.751Z,99.90
2019-05-05T02:15:34.478Z,99.90
2019-05-05T02:18:04.563Z,99.90
2019-05-05T02:20:45.645Z,99.90
2019-05-05T02:23:16.533Z,99.90
2019-05-05T02:25:45.806Z,99.90
2019-05-05T02:28:15.048Z,99.90
2019-05-05T02:30:57.299Z,99.90
2019-05-05T02:33:26.344Z,99.90
2019-05-05T02:35:55.792Z,99.90
2019-05-05T02:38:26.080Z,99.90
2019-05-05T02:40:55.788Z,99.90
2019-05-05T02:43:26.234Z,99.90
2019-05-05T02:46:25.330Z,99.90
2019-05-05T02:48:57.967Z,99.90
2019-05-05T02:51:27.912Z,99.90
2019-05-05T02:53:59.296Z,99.90
2019-05-05T02:56:34.362Z,99.90
2019-05-05T02:59:06.970Z,99.90
2019-05-05T03:01:49.678Z,99.90
2019-05-05T03:04:19.589Z,99.90
2019-05-05T03:06:51.359Z,99.90
2019-05-05T03:09:21.321Z,99.90
2019-05-05T03:11:54.114Z,99.90
2019-05-05T03:14:24.601Z,99.90
2019-05-05T03:16:54.264Z,99.90
2019-05-05T03:19:24.757Z,99.90
2019-05-05T03:21:54.628Z,99.90
2019-05-05T03:24:24.030Z,99.90
2019-05-05T03:26:53.777Z,99.90
2019-05-05T03:29:24.312Z,99.90
2019-05-05T03:31:56.204Z,99.90
2019-05-05T03:34:24.359Z,99.90
2019-05-05T03:36:53.982Z,99.90
2019-05-05T03:39:25.501Z,99.90
2019-05-05T03:42:15.274Z,99.90
2019-05-05T03:44:49.223Z,99.90
2019-05-05T03:47:18.502Z,99.90
2019-05-05T03:49:47.481Z,99.90
2019-05-05T03:52:16.491Z,99.90
2019-05-05T03:54:45.840Z,99.90
2019-05-05T03:57:15.413Z,99.90
2019-05-05T03:59:44.829Z,99.90
2019-05-05T04:02:28.887Z,99.90
2019-05-05T04:05:00.490Z,99.90
2019-05-05T04:07:29.522Z,99.90
2019-05-05T04:09:58.470Z,99.90
2019-05-05T04:12:27.710Z,99.90
2019-05-05T04:14:56.833Z,99.90
2019-05-05T04:17:44.303Z,99.90
2019-05-05T04:20:45.040Z,99.90
2019-05-05T04:23:14.231Z,99.90
2019-05-05T04:25:43.953Z,99.90
2019-05-05T04:28:13.627Z,99.90
2019-05-05T04:30:44.443Z,99.90
2019-05-05T04:33:14.304Z,99.90
2019-05-05T04:35:44.420Z,99.90
2019-05-05T04:38:14.034Z,99.90
2019-05-05T04:40:43.685Z,99.90
2019-05-05T04:43:14.350Z,99.90
2019-05-05T04:45:43.639Z,99.90
2019-05-05T04:48:24.795Z,99.90
2019-05-05T04:50:59.332Z,99.90
2019-05-05T04:53:34.717Z,99.90
2019-05-05T04:56:04.318Z,99.90
2019-05-05T04:58:33.689Z,99.90
2019-05-05T05:01:04.533Z,99.90
2019-05-05T05:03:43.868Z,99.90
2019-05-05T05:06:16.512Z,99.90
2019-05-05T05:08:45.459Z,99.90
2019-05-05T05:11:14.343Z,99.90
2019-05-05T05:14:03.848Z,99.90
2019-05-05T05:16:33.052Z,99.90
2019-05-05T05:19:01.921Z,99.90
2019-05-05T05:21:30.924Z,99.90
2019-05-05T05:23:59.806Z,99.90
2019-05-05T05:26:29.335Z,99.90
2019-05-05T05:28:58.239Z,99.90
2019-05-05T05:31:27.328Z,99.90
2019-05-05T05:33:56.279Z,99.90
2019-05-05T05:36:25.384Z,99.90
2019-05-05T05:38:57.087Z,99.90
2019-05-05T05:41:43.879Z,99.90
2019-05-05T05:44:31.420Z,99.90
2019-05-05T05:47:08.720Z,99.90
2019-05-05T05:49:47.655Z,99.90
2019-05-05T05:52:19.289Z,99.90
2019-05-05T05:54:47.491Z,99.90
2019-05-05T05:57:16.460Z,99.90
2019-05-05T05:59:45.510Z,99.90
2019-05-05T06:02:15.590Z,99.90
2019-05-05T06:04:44.752Z,99.90
2019-05-05T06:07:14.373Z,99.90
2019-05-05T06:09:43.910Z,99.90
2019-05-05T06:12:14.232Z,99.90
2019-05-05T06:14:44.684Z,99.90
2019-05-05T06:17:13.950Z,99.90
2019-05-05T06:19:44.640Z,99.90
2019-05-05T06:22:17.889Z,99.90
2019-05-05T06:24:44.823Z,99.90
2019-05-05T06:27:14.383Z,99.90
2019-05-05T06:29:43.926Z,99.90
2019-05-05T06:32:14.596Z,99.90
2019-05-05T06:34:44.264Z,99.90
2019-05-05T06:37:16.843Z,99.90
2019-05-05T06:39:47.639Z,99.90
2019-05-05T06:42:35.892Z,99.90
2019-05-05T06:45:14.342Z,99.90
2019-05-05T06:47:44.487Z,99.90
2019-05-05T06:50:14.049Z,99.90
2019-05-05T06:52:45.184Z,99.90
2019-05-05T06:55:14.167Z,99.90
2019-05-05T06:57:44.410Z,99.90
2019-05-05T07:00:14.024Z,99.90
2019-05-05T07:02:44.432Z,99.90
2019-05-05T07:05:14.273Z,99.90
2019-05-05T07:07:43.573Z,99.90
2019-05-05T07:10:14.099Z,99.90
2019-05-05T07:12:44.006Z,99.90
2019-05-05T07:15:14.490Z,99.90
2019-05-05T07:17:44.294Z,99.90
2019-05-05T07:20:13.702Z,99.90
2019-05-05T07:22:57.999Z,99.90
2019-05-05T07:25:13.867Z,99.90
2019-05-05T07:27:44.228Z,99.90
2019-05-05T07:30:13.837Z,99.90
2019-05-05T07:32:44.308Z,99.90
2019-05-05T07:35:52.023Z,99.90
2019-05-05T07:38:09.302Z,99.90
2019-05-05T07:40:38.320Z,99.90
2019-05-05T07:43:07.308Z,99.90
2019-05-05T07:45:36.334Z,99.90
2019-05-05T07:48:05.463Z,99.90
2019-05-05T07:50:35.740Z,99.90
2019-05-05T07:53:14.433Z,99.90
2019-05-05T07:55:36.126Z,99.90
2019-05-05T07:58:05.277Z,99.90
2019-05-05T08:00:34.455Z,99.90
2019-05-05T08:03:04.085Z,99.90
2019-05-05T08:05:33.653Z,99.90
2019-05-05T08:08:04.638Z,99.90
2019-05-05T08:10:34.378Z,99.90
2019-05-05T08:13:04.689Z,99.90
2019-05-05T08:15:34.444Z,99.90
2019-05-05T08:18:13.878Z,99.90
2019-05-05T08:20:45.905Z,99.90
2019-05-05T08:23:35.568Z,99.90
2019-05-05T08:26:17.163Z,99.90
2019-05-05T08:28:56.663Z,99.90
2019-05-05T08:31:53.874Z,99.90
2019-05-05T08:34:24.483Z,99.90
2019-05-05T08:36:53.863Z,99.90
2019-05-05T08:39:24.518Z,99.90
2019-05-05T08:41:53.895Z,99.90
2019-05-05T08:44:23.681Z,99.90
2019-05-05T08:46:53.794Z,99.90
2019-05-05T08:49:24.445Z,99.90
2019-05-05T08:51:54.715Z,99.90
2019-05-05T08:54:24.033Z,99.90
2019-05-05T08:57:04.229Z,99.90
2019-05-05T08:59:33.836Z,99.90
2019-05-05T09:02:04.500Z,99.90
2019-05-05T09:04:34.074Z,99.90
2019-05-05T09:07:04.996Z,99.90
2019-05-05T09:09:34.223Z,99.90
2019-05-05T09:12:04.555Z,99.90
2019-05-05T09:14:34.571Z,99.90
2019-05-05T09:17:04.418Z,99.90
2019-05-05T09:19:34.433Z,99.90
2019-05-05T09:22:06.805Z,99.90
2019-05-05T09:24:47.083Z,99.90
2019-05-05T09:27:34.099Z,99.90
2019-05-05T09:30:04.023Z,99.90
2019-05-05T09:32:34.432Z,99.20
2019-05-05T09:35:04.751Z,96.10
2019-05-05T09:37:34.103Z,99.50
2019-05-05T09:40:04.514Z,99.90
2019-05-05T09:42:34.233Z,99.90
2019-05-05T09:45:04.781Z,98.40
2019-05-05T09:47:34.477Z,97.20
2019-05-05T09:50:03.986Z,90.30
2019-05-05T09:52:33.776Z,91.40
2019-05-05T09:55:03.878Z,93.90
2019-05-05T09:57:34.397Z,85.40
2019-05-05T10:00:09.774Z,90.30
2019-05-05T10:02:38.830Z,92.90
2019-05-05T10:05:08.824Z,97.90
2019-05-05T10:07:38.080Z,99.90
2019-05-05T10:10:07.651Z,99.90
2019-05-05T10:12:36.576Z,99.90
2019-05-05T10:15:07.429Z,99.90
2019-05-05T10:17:36.595Z,99.90
2019-05-05T10:20:05.931Z,99.90
2019-05-05T10:22:35.083Z,99.90
2019-05-05T10:25:23.809Z,99.90
2019-05-05T10:27:53.922Z,99.90
2019-05-05T10:30:23.821Z,99.90
2019-05-05T10:32:54.545Z,99.90
2019-05-05T10:35:23.879Z,99.90
2019-05-05T10:37:54.441Z,99.90
2019-05-05T10:40:27.606Z,92.90
2019-05-05T10:42:56.480Z,76.50
2019-05-05T10:45:25.965Z,75.00
2019-05-05T10:47:55.026Z,79.20
2019-05-05T10:50:24.644Z,77.20
2019-05-05T10:52:53.972Z,76.30
2019-05-05T10:55:23.905Z,68.30
2019-05-05T10:57:54.373Z,72.00
2019-05-05T11:00:59.867Z,67.40
2019-05-05T11:03:29.431Z,63.40
2019-05-05T11:05:58.560Z,65.30
2019-05-05T11:08:30.772Z,73.80
2019-05-05T11:10:59.562Z,89.80
2019-05-05T11:13:28.593Z,99.90
2019-05-05T11:15:57.630Z,99.90
2019-05-05T11:18:26.571Z,99.90
2019-05-05T11:20:56.167Z,99.90
2019-05-05T11:23:25.156Z,99.90
2019-05-05T11:25:54.613Z,99.90
2019-05-05T11:28:23.975Z,99.90
2019-05-05T11:30:53.772Z,99.90
2019-05-05T11:33:40.691Z,94.60
2019-05-05T11:36:25.832Z,86.40
2019-05-05T11:38:54.840Z,82.50
2019-05-05T11:41:24.340Z,73.70
2019-05-05T11:43:53.984Z,73.20
2019-05-05T11:46:24.735Z,66.90
2019-05-05T11:48:54.465Z,66.00
2019-05-05T11:51:25.006Z,68.40
2019-05-05T11:53:54.269Z,68.20
2019-05-05T11:56:23.440Z,62.70
2019-05-05T11:58:54.503Z,63.80
2019-05-05T12:01:24.361Z,62.00
2019-05-05T12:03:53.690Z,66.20
2019-05-05T12:06:24.644Z,64.80
2019-05-05T12:08:53.544Z,65.20
2019-05-05T12:11:24.011Z,61.70
2019-05-05T12:13:54.629Z,60.30
2019-05-05T12:16:30.829Z,60.30
2019-05-05T12:19:01.015Z,57.50
2019-05-05T12:21:29.982Z,56.60
2019-05-05T12:24:03.869Z,55.30
2019-05-05T12:27:06.883Z,58.10
2019-05-05T12:29:39.990Z,62.30
2019-05-05T12:32:08.957Z,69.20
2019-05-05T12:34:37.872Z,74.40
2019-05-05T12:37:06.800Z,85.80
2019-05-05T12:39:35.752Z,93.70
2019-05-05T12:42:05.390Z,96.90
2019-05-05T12:44:41.484Z,96.80
2019-05-05T12:47:18.200Z,96.30
2019-05-05T12:49:47.252Z,99.90
2019-05-05T12:52:16.289Z,99.40
2019-05-05T12:54:45.152Z,91.50
2019-05-05T12:57:14.198Z,75.70
2019-05-05T12:59:44.386Z,75.40
2019-05-05T13:02:14.303Z,78.90
2019-05-05T13:04:43.580Z,81.20
2019-05-05T13:07:13.624Z,81.90
2019-05-05T13:09:44.047Z,87.00
2019-05-05T13:12:15.069Z,84.90
2019-05-05T13:14:44.326Z,85.20
2019-05-05T13:17:14.218Z,86.00
2019-05-05T13:19:53.228Z,83.90
2019-05-05T13:22:44.411Z,83.60
2019-05-05T13:25:27.323Z,83.00
2019-05-05T13:27:57.431Z,76.80
2019-05-05T13:30:26.604Z,75.00
2019-05-05T13:32:55.599Z,71.70
2019-05-05T13:35:25.009Z,74.40
2019-05-05T13:37:54.937Z,70.90
2019-05-05T13:40:24.261Z,73.60
2019-05-05T13:42:54.682Z,74.00
2019-05-05T13:45:38.987Z,77.20
2019-05-05T13:48:08.008Z,80.20
2019-05-05T13:50:48.671Z,80.80
2019-05-05T13:53:17.602Z,79.60
2019-05-05T13:55:46.664Z,80.00
2019-05-05T13:58:15.709Z,79.30
2019-05-05T14:00:44.808Z,90.60
2019-05-05T14:03:13.738Z,96.30
2019-05-05T14:05:43.717Z,98.90
2019-05-05T14:08:14.607Z,99.90
2019-05-05T14:10:43.573Z,99.90
2019-05-05T14:13:12.635Z,92.80
2019-05-05T14:15:41.625Z,95.20
2019-05-05T14:18:10.659Z,91.30
2019-05-05T14:20:39.615Z,87.60
2019-05-05T14:23:08.549Z,91.90
2019-05-05T14:25:37.647Z,92.10
2019-05-05T14:28:06.672Z,95.50
2019-05-05T14:30:45.819Z,94.20
2019-05-05T14:33:24.058Z,92.30
2019-05-05T14:36:20.741Z,94.10
2019-05-05T14:38:55.236Z,90.80
2019-05-05T14:41:24.236Z,91.70
2019-05-05T14:43:54.652Z,92.10
2019-05-05T14:46:24.221Z,91.10
2019-05-05T14:48:53.572Z,85.30
2019-05-05T14:51:22.864Z,87.30
2019-05-05T14:53:54.117Z,82.60
2019-05-05T14:56:35.439Z,85.60
2019-05-05T14:58:54.345Z,83.60
2019-05-05T15:01:24.719Z,89.60
2019-05-05T15:03:54.018Z,87.90
2019-05-05T15:06:35.707Z,88.30
2019-05-05T15:09:27.599Z,85.50
2019-05-05T15:12:16.292Z,89.70
2019-05-05T15:14:45.229Z,89.90
2019-05-05T15:17:14.289Z,88.40
2019-05-05T15:19:43.655Z,90.70
2019-05-05T15:22:14.998Z,88.30
2019-05-05T15:24:44.149Z,85.00
2019-05-05T15:27:13.279Z,89.60
2019-05-05T15:29:43.590Z,85.80
2019-05-05T15:32:14.761Z,88.80
2019-05-05T15:34:43.891Z,90.00
2019-05-05T15:37:14.437Z,90.40
2019-05-05T15:39:44.150Z,90.20
2019-05-05T15:42:13.457Z,90.80
2019-05-05T15:44:43.928Z,90.80
2019-05-05T15:47:13.312Z,91.90
2019-05-05T15:49:44.063Z,93.20
2019-05-05T15:52:13.731Z,92.50
2019-05-05T15:54:44.679Z,90.50
2019-05-05T15:57:14.829Z,90.70
2019-05-05T15:59:44.565Z,91.90
2019-05-05T16:02:13.569Z,91.70
2019-05-05T16:04:42.540Z,89.70
2019-05-05T16:07:13.661Z,85.90
2019-05-05T16:09:46.521Z,84.20
2019-05-05T16:12:14.383Z,82.90
2019-05-05T16:15:01.177Z,78.90
2019-05-05T16:17:36.532Z,81.10
2019-05-05T16:20:13.934Z,80.50
2019-05-05T16:23:05.131Z,81.00
2019-05-05T16:25:34.131Z,79.80
2019-05-05T16:28:05.400Z,82.60
2019-05-05T16:30:34.132Z,88.90
2019-05-05T16:33:04.219Z,88.60
2019-05-05T16:35:34.245Z,86.60
2019-05-05T16:38:03.840Z,95.30
2019-05-05T16:40:34.258Z,99.90
2019-05-05T16:43:04.699Z,96.30
2019-05-05T16:45:34.104Z,94.30
2019-05-05T16:48:03.932Z,93.60
2019-05-05T16:50:36.821Z,95.50
2019-05-05T16:53:06.680Z,95.80
2019-05-05T16:55:49.362Z,98.70
2019-05-05T16:58:18.432Z,99.90
2019-05-05T17:00:47.367Z,99.90
2019-05-05T17:03:16.671Z,99.90
2019-05-05T17:05:46.790Z,99.90
2019-05-05T17:08:16.098Z,99.90
2019-05-05T17:10:45.105Z,99.90
2019-05-05T17:13:26.663Z,99.90
2019-05-05T17:16:20.779Z,99.90
2019-05-05T17:18:55.445Z,99.90
2019-05-05T17:21:28.851Z,99.90
2019-05-05T17:23:58.041Z,99.90
2019-05-05T17:26:27.103Z,99.90
2019-05-05T17:28:56.077Z,99.90
2019-05-05T17:31:25.101Z,99.90
2019-05-05T17:33:54.100Z,99.90
2019-05-05T17:36:24.143Z,99.90
2019-05-05T17:38:54.344Z,99.90
2019-05-05T17:41:41.880Z,99.90
2019-05-05T17:44:19.178Z,99.90
2019-05-05T17:47:10.478Z,99.90
2019-05-05T17:50:04.009Z,99.90
2019-05-05T17:52:48.003Z,99.90
2019-05-05T17:55:27.708Z,99.90
2019-05-05T17:58:01.561Z,99.90
2019-05-05T18:00:30.026Z,99.90
2019-05-05T18:02:59.185Z,99.90
2019-05-05T18:05:46.095Z,99.90
2019-05-05T18:08:46.290Z,98.00
2019-05-05T18:11:35.226Z,99.40
2019-05-05T18:14:08.581Z,99.90
2019-05-05T18:16:37.734Z,99.90
2019-05-05T18:19:08.040Z,99.90
2019-05-05T18:21:37.244Z,96.90
2019-05-05T18:24:09.107Z,96.20
2019-05-05T18:26:38.385Z,97.10
2019-05-05T18:29:07.498Z,97.50
2019-05-05T18:31:36.761Z,96.70
2019-05-05T18:34:05.819Z,96.40
2019-05-05T18:36:34.806Z,99.00
2019-05-05T18:39:05.833Z,99.90
2019-05-05T18:41:40.110Z,99.90
2019-05-05T18:44:14.209Z,99.90
2019-05-05T18:46:43.657Z,99.90
2019-05-05T18:49:13.871Z,99.90
2019-05-05T18:51:43.933Z,99.90
2019-05-05T18:54:13.463Z,99.90
2019-05-05T18:56:44.030Z,99.90
2019-05-05T18:59:13.009Z,99.90
2019-05-05T19:01:58.717Z,99.90
2019-05-05T19:04:45.332Z,99.90
2019-05-05T19:07:19.228Z,99.90
2019-05-05T19:09:54.013Z,99.90
2019-05-05T19:12:19.148Z,99.90
2019-05-05T19:14:48.154Z,99.90
2019-05-05T19:17:17.325Z,99.90
2019-05-05T19:19:50.299Z,99.90
2019-05-05T19:22:19.090Z,99.90
2019-05-05T19:24:48.046Z,99.90
2019-05-05T19:27:17.085Z,99.90
2019-05-05T19:29:46.497Z,99.90
2019-05-05T19:32:15.939Z,99.90
2019-05-05T19:34:45.001Z,99.90
2019-05-05T19:37:14.108Z,99.90
2019-05-05T19:39:43.149Z,99.90
2019-05-05T19:42:14.314Z,99.90
2019-05-05T19:44:43.798Z,99.90
2019-05-05T19:47:18.670Z,99.90
2019-05-05T19:49:59.690Z,99.90
2019-05-05T19:52:28.646Z,99.90
2019-05-05T19:54:57.579Z,99.90
2019-05-05T19:57:33.653Z,99.90
2019-05-05T20:00:03.977Z,99.90
2019-05-05T20:02:34.124Z,99.90
2019-05-05T20:05:04.294Z,99.90
2019-05-05T20:07:33.535Z,99.90
2019-05-05T20:10:04.044Z,99.90
2019-05-05T20:12:33.576Z,99.90
2019-05-05T20:15:04.433Z,99.90
2019-05-05T20:17:35.793Z,99.90
2019-05-05T20:20:06.499Z,99.90
2019-05-05T20:22:35.589Z,99.90
2019-05-05T20:25:05.246Z,99.90
2019-05-05T20:27:34.433Z,99.90
2019-05-05T20:30:06.465Z,99.90
2019-05-05T20:32:56.173Z,99.90
2019-05-05T20:35:53.891Z,99.90
2019-05-05T20:38:28.405Z,99.90
2019-05-05T20:41:16.408Z,99.90
2019-05-05T20:43:45.616Z,99.90
2019-05-05T20:46:15.192Z,99.90
2019-05-05T20:48:44.813Z,99.90
2019-05-05T20:51:14.210Z,99.90
2019-05-05T20:53:45.168Z,99.90
2019-05-05T20:56:14.980Z,99.90
2019-05-05T20:58:44.195Z,99.90
2019-05-05T21:01:13.989Z,99.90
2019-05-05T21:03:43.177Z,99.90
2019-05-05T21:06:13.910Z,99.90
2019-05-05T21:08:44.039Z,99.90
2019-05-05T21:11:14.139Z,99.90
2019-05-05T21:13:45.079Z,99.90
2019-05-05T21:16:14.390Z,99.90
2019-05-05T21:18:43.854Z,99.90
2019-05-05T21:21:18.275Z,99.90
2019-05-05T21:23:54.736Z,99.90
2019-05-05T21:26:47.285Z,99.90
2019-05-05T21:29:16.313Z,99.90
2019-05-05T21:31:45.373Z,99.90
2019-05-05T21:34:14.249Z,99.90
2019-05-05T21:36:44.847Z,99.90
2019-05-05T21:39:15.079Z,99.90
2019-05-05T21:41:44.266Z,99.90
2019-05-05T21:44:14.676Z,99.90
2019-05-05T21:46:44.137Z,99.90
2019-05-05T21:49:13.736Z,99.90
2019-05-05T21:52:07.727Z,99.90
2019-05-05T21:54:48.729Z,99.90
2019-05-05T21:57:34.604Z,99.90
2019-05-05T22:00:06.756Z,99.90
2019-05-05T22:02:35.785Z,99.90
2019-05-05T22:05:05.471Z,99.90
2019-05-05T22:07:34.460Z,99.90
2019-05-05T22:10:04.457Z,99.90
2019-05-05T22:12:36.118Z,99.90
2019-05-05T22:15:04.394Z,99.90
2019-05-05T22:17:33.637Z,99.90
2019-05-05T22:20:14.502Z,99.90
2019-05-05T22:22:45.057Z,99.90
2019-05-05T22:25:14.530Z,99.90
2019-05-05T22:27:44.134Z,99.90
2019-05-05T22:30:14.176Z,99.90
2019-05-05T22:32:44.127Z,99.90
2019-05-05T22:35:13.985Z,99.90
2019-05-05T22:37:44.084Z,99.90
2019-05-05T22:40:20.350Z,99.90
2019-05-05T22:42:49.427Z,99.90
2019-05-05T22:45:18.454Z,99.90
2019-05-05T22:47:47.402Z,99.90
2019-05-05T22:50:16.495Z,99.90
2019-05-05T22:52:45.453Z,99.90
2019-05-05T22:55:15.223Z,99.90
2019-05-05T22:57:45.215Z,99.90
2019-05-05T23:00:28.332Z,99.90
2019-05-05T23:02:52.026Z,99.90
2019-05-05T23:05:38.861Z,99.90
2019-05-05T23:08:07.721Z,99.90
2019-05-05T23:10:37.843Z,99.90
2019-05-05T23:13:07.158Z,99.90
2019-05-05T23:15:38.256Z,99.90
2019-05-05T23:18:19.309Z,99.90
2019-05-05T23:21:08.872Z,99.90
2019-05-05T23:23:56.283Z,99.90
2019-05-05T23:26:26.934Z,99.90
2019-05-05T23:28:55.854Z,99.90
2019-05-05T23:31:24.984Z,99.90
2019-05-05T23:33:54.831Z,99.90
2019-05-05T23:36:24.320Z,99.90
2019-05-05T23:38:54.974Z,99.90
2019-05-05T23:41:24.051Z,99.90
2019-05-05T23:43:54.460Z,99.90
2019-05-05T23:46:24.214Z,99.90
2019-05-05T23:48:53.793Z,99.90
2019-05-05T23:51:24.269Z,99.90
2019-05-05T23:53:55.070Z,99.90
2019-05-05T23:56:24.159Z,99.90
2019-05-05T23:58:54.940Z,99.90
